sensor_id;sensor_type;location;lat;lon;timestamp;pressure;altitude;pressure_sealevel;temperature;humidity
3444;BME280;1736;52.068;6.968;2023-04-24T00:01:23;99388.09;;;10.03;100.00
3444;BME280;1736;52.068;6.968;2023-04-24T00:03:51;99388.94;;;10.03;100.00
3444;BME280;1736;52.068;6.968;2023-04-24T00:06:17;99397.34;;;9.99;100.00
3444;BME280;1736;52.068;6.968;2023-04-24T00:08:45;99402.25;;;10.11;100.00
3444;BME280;1736;52.068;6.968;2023-04-24T00:11:11;99402.63;;;9.99;100.00
3444;BME280;1736;52.068;6.968;2023-04-24T00:13:38;99400.81;;;9.99;100.00
3444;BME280;1736;52.068;6.968;2023-04-24T00:16:05;99401.28;;;9.95;100.00
3444;BME280;1736;52.068;6.968;2023-04-24T00:18:32;99404.44;;;9.98;100.00
3444;BME280;1736;52.068;6.968;2023-04-24T00:20:58;99406.13;;;9.99;100.00
3444;BME280;1736;52.068;6.968;2023-04-24T00:23:31;99424.13;;;9.96;100.00
3444;BME280;1736;52.068;6.968;2023-04-24T00:25:59;99423.31;;;9.95;100.00
3444;BME280;1736;52.068;6.968;2023-04-24T00:28:25;99418.03;;;9.95;100.00
3444;BME280;1736;52.068;6.968;2023-04-24T00:30:52;99419.31;;;10.09;100.00
3444;BME280;1736;52.068;6.968;2023-04-24T00:33:19;99424.69;;;9.99;100.00
3444;BME280;1736;52.068;6.968;2023-04-24T00:35:45;99414.75;;;10.01;100.00
3444;BME280;1736;52.068;6.968;2023-04-24T00:38:12;99422.84;;;10.00;100.00
3444;BME280;1736;52.068;6.968;2023-04-24T00:40:38;99414.22;;;9.98;100.00
3444;BME280;1736;52.068;6.968;2023-04-24T00:43:06;99422.47;;;9.95;100.00
3444;BME280;1736;52.068;6.968;2023-04-24T00:45:33;99429.28;;;9.97;100.00
3444;BME280;1736;52.068;6.968;2023-04-24T00:48:00;99423.84;;;9.99;100.00
3444;BME280;1736;52.068;6.968;2023-04-24T00:50:27;99422.38;;;10.04;100.00
3444;BME280;1736;52.068;6.968;2023-04-24T00:52:54;99420.34;;;9.98;100.00
3444;BME280;1736;52.068;6.968;2023-04-24T00:55:20;99430.72;;;9.92;100.00
3444;BME280;1736;52.068;6.968;2023-04-24T00:57:48;99423.13;;;9.89;100.00
3444;BME280;1736;52.068;6.968;2023-04-24T01:00:17;99420.53;;;9.97;100.00
3444;BME280;1736;52.068;6.968;2023-04-24T01:02:45;99424.63;;;9.91;100.00
3444;BME280;1736;52.068;6.968;2023-04-24T01:05:12;99418.97;;;9.94;100.00
3444;BME280;1736;52.068;6.968;2023-04-24T01:07:41;99421.13;;;9.91;100.00
3444;BME280;1736;52.068;6.968;2023-04-24T01:10:11;99417.66;;;9.90;100.00
3444;BME280;1736;52.068;6.968;2023-04-24T01:12:38;99410.72;;;9.97;100.00
3444;BME280;1736;52.068;6.968;2023-04-24T01:15:05;99421.63;;;9.94;100.00
3444;BME280;1736;52.068;6.968;2023-04-24T01:17:34;99419.97;;;9.93;100.00
3444;BME280;1736;52.068;6.968;2023-04-24T01:20:08;99416.34;;;9.94;100.00
3444;BME280;1736;52.068;6.968;2023-04-24T01:22:36;99414.06;;;9.99;100.00
3444;BME280;1736;52.068;6.968;2023-04-24T01:25:03;99404.63;;;9.97;100.00
3444;BME280;1736;52.068;6.968;2023-04-24T01:27:30;99411.94;;;10.03;100.00
3444;BME280;1736;52.068;6.968;2023-04-24T01:29:57;99410.59;;;9.99;100.00
3444;BME280;1736;52.068;6.968;2023-04-24T01:32:23;99409.59;;;10.00;100.00
3444;BME280;1736;52.068;6.968;2023-04-24T01:34:51;99408.78;;;9.99;100.00
3444;BME280;1736;52.068;6.968;2023-04-24T01:37:17;99408.78;;;9.99;100.00
3444;BME280;1736;52.068;6.968;2023-04-24T01:39:45;99403.72;;;10.06;100.00
3444;BME280;1736;52.068;6.968;2023-04-24T01:42:12;99406.28;;;9.98;100.00
3444;BME280;1736;52.068;6.968;2023-04-24T01:44:40;99396.19;;;10.01;100.00
3444;BME280;1736;52.068;6.968;2023-04-24T01:47:07;99410.94;;;10.04;100.00
3444;BME280;1736;52.068;6.968;2023-04-24T01:49:34;99408.94;;;9.98;100.00
3444;BME280;1736;52.068;6.968;2023-04-24T01:52:00;99405.28;;;9.99;100.00
3444;BME280;1736;52.068;6.968;2023-04-24T01:54:27;99401.28;;;9.95;100.00
3444;BME280;1736;52.068;6.968;2023-04-24T01:56:55;99412.59;;;9.79;100.00
3444;BME280;1736;52.068;6.968;2023-04-24T01:59:21;99411.00;;;9.86;100.00
3444;BME280;1736;52.068;6.968;2023-04-24T02:01:49;99414.25;;;9.80;100.00
3444;BME280;1736;52.068;6.968;2023-04-24T02:04:16;99409.94;;;9.79;100.00
3444;BME280;1736;52.068;6.968;2023-04-24T02:06:42;99405.44;;;9.97;100.00
3444;BME280;1736;52.068;6.968;2023-04-24T02:09:08;99405.53;;;9.88;100.00
3444;BME280;1736;52.068;6.968;2023-04-24T02:11:37;99405.72;;;9.94;100.00
3444;BME280;1736;52.068;6.968;2023-04-24T02:14:05;99398.88;;;9.84;100.00
3444;BME280;1736;52.068;6.968;2023-04-24T02:16:31;99414.25;;;9.80;100.00
3444;BME280;1736;52.068;6.968;2023-04-24T02:18:59;99401.47;;;9.76;100.00
3444;BME280;1736;52.068;6.968;2023-04-24T02:21:33;99411.38;;;9.74;100.00
3444;BME280;1736;52.068;6.968;2023-04-24T02:24:13;99412.06;;;9.76;100.00
3444;BME280;1736;52.068;6.968;2023-04-24T02:26:39;99411.63;;;9.63;100.00
3444;BME280;1736;52.068;6.968;2023-04-24T02:29:07;99408.22;;;9.70;100.00
3444;BME280;1736;52.068;6.968;2023-04-24T02:31:34;99415.78;;;9.65;100.00
3444;BME280;1736;52.068;6.968;2023-04-24T02:34:00;99411.63;;;9.63;100.00
3444;BME280;1736;52.068;6.968;2023-04-24T02:36:27;99418.13;;;9.68;100.00
3444;BME280;1736;52.068;6.968;2023-04-24T02:38:53;99412.47;;;9.63;100.00
3444;BME280;1736;52.068;6.968;2023-04-24T02:41:20;99412.25;;;9.57;100.00
3444;BME280;1736;52.068;6.968;2023-04-24T02:43:46;99409.75;;;9.55;100.00
3444;BME280;1736;52.068;6.968;2023-04-24T02:46:14;99404.09;;;9.50;100.00
3444;BME280;1736;52.068;6.968;2023-04-24T02:48:41;99418.22;;;9.41;100.00
3444;BME280;1736;52.068;6.968;2023-04-24T02:51:07;99410.88;;;9.35;100.00
3444;BME280;1736;52.068;6.968;2023-04-24T02:53:34;99409.88;;;9.36;100.00
3444;BME280;1736;52.068;6.968;2023-04-24T02:56:00;99413.91;;;9.40;100.00
3444;BME280;1736;52.068;6.968;2023-04-24T02:58:26;99410.88;;;9.35;100.00
3444;BME280;1736;52.068;6.968;2023-04-24T03:00:53;99419.91;;;9.42;100.00
3444;BME280;1736;52.068;6.968;2023-04-24T03:03:22;99416.56;;;9.40;100.00
3444;BME280;1736;52.068;6.968;2023-04-24T03:05:49;99407.63;;;9.41;100.00
3444;BME280;1736;52.068;6.968;2023-04-24T03:08:16;99408.59;;;9.40;100.00
3444;BME280;1736;52.068;6.968;2023-04-24T03:10:42;99416.09;;;9.27;100.00
3444;BME280;1736;52.068;6.968;2023-04-24T03:13:09;99415.25;;;9.27;100.00
3444;BME280;1736;52.068;6.968;2023-04-24T03:15:35;99422.38;;;9.26;100.00
3444;BME280;1736;52.068;6.968;2023-04-24T03:18:02;99418.44;;;9.30;100.00
3444;BME280;1736;52.068;6.968;2023-04-24T03:20:30;99411.94;;;9.25;100.00
3444;BME280;1736;52.068;6.968;2023-04-24T03:22:57;99419.94;;;9.15;100.00
3444;BME280;1736;52.068;6.968;2023-04-24T03:25:23;99425.16;;;9.07;100.00
3444;BME280;1736;52.068;6.968;2023-04-24T03:27:50;99414.28;;;9.10;100.00
3444;BME280;1736;52.068;6.968;2023-04-24T03:30:16;99424.63;;;9.04;100.00
3444;BME280;1736;52.068;6.968;2023-04-24T03:32:43;99426.44;;;9.03;100.00
3444;BME280;1736;52.068;6.968;2023-04-24T03:35:09;99431.72;;;9.03;100.00
3444;BME280;1736;52.068;6.968;2023-04-24T03:37:37;99433.00;;;8.99;100.00
3444;BME280;1736;52.068;6.968;2023-04-24T03:40:05;99435.53;;;8.91;100.00
3444;BME280;1736;52.068;6.968;2023-04-24T03:42:33;99433.59;;;8.93;100.00
3444;BME280;1736;52.068;6.968;2023-04-24T03:44:59;99430.25;;;8.91;100.00
3444;BME280;1736;52.068;6.968;2023-04-24T03:47:26;99432.09;;;8.91;100.00
3444;BME280;1736;52.068;6.968;2023-04-24T03:49:52;99429.50;;;8.99;100.00
3444;BME280;1736;52.068;6.968;2023-04-24T03:52:20;99435.94;;;8.96;100.00
3444;BME280;1736;52.068;6.968;2023-04-24T03:54:48;99433.97;;;8.98;100.00
3444;BME280;1736;52.068;6.968;2023-04-24T03:57:15;99433.97;;;8.98;100.00
3444;BME280;1736;52.068;6.968;2023-04-24T03:59:41;99434.78;;;8.99;100.00
3444;BME280;1736;52.068;6.968;2023-04-24T04:02:08;99435.63;;;8.99;100.00
3444;BME280;1736;52.068;6.968;2023-04-24T04:04:34;99432.16;;;8.99;100.00
3444;BME280;1736;52.068;6.968;2023-04-24T04:07:01;99443.56;;;8.99;100.00
3444;BME280;1736;52.068;6.968;2023-04-24T04:09:28;99446.59;;;9.04;100.00
3444;BME280;1736;52.068;6.968;2023-04-24T04:11:56;99440.19;;;9.07;100.00
3444;BME280;1736;52.068;6.968;2023-04-24T04:14:22;99452.97;;;9.11;100.00
3444;BME280;1736;52.068;6.968;2023-04-24T04:16:49;99445.66;;;9.05;100.00
3444;BME280;1736;52.068;6.968;2023-04-24T04:19:16;99455.53;;;9.03;100.00
3444;BME280;1736;52.068;6.968;2023-04-24T04:21:42;99451.91;;;9.04;100.00
3444;BME280;1736;52.068;6.968;2023-04-24T04:24:10;99457.50;;;9.01;100.00
3444;BME280;1736;52.068;6.968;2023-04-24T04:26:37;99464.16;;;9.05;100.00
3444;BME280;1736;52.068;6.968;2023-04-24T04:29:05;99456.53;;;9.02;100.00
3444;BME280;1736;52.068;6.968;2023-04-24T04:31:32;99449.56;;;9.01;100.00
3444;BME280;1736;52.068;6.968;2023-04-24T04:33:58;99453.63;;;8.96;100.00
3444;BME280;1736;52.068;6.968;2023-04-24T04:36:26;99461.13;;;9.00;100.00
3444;BME280;1736;52.068;6.968;2023-04-24T04:38:54;99463.09;;;8.98;100.00
3444;BME280;1736;52.068;6.968;2023-04-24T04:41:21;99462.94;;;9.00;100.00
3444;BME280;1736;52.068;6.968;2023-04-24T04:43:48;99473.91;;;9.05;100.00
3444;BME280;1736;52.068;6.968;2023-04-24T04:46:16;99468.09;;;9.01;100.00
3444;BME280;1736;52.068;6.968;2023-04-24T04:48:42;99477.00;;;9.00;100.00
3444;BME280;1736;52.068;6.968;2023-04-24T04:51:09;99479.22;;;9.05;100.00
3444;BME280;1736;52.068;6.968;2023-04-24T04:53:36;99483.06;;;9.10;100.00
3444;BME280;1736;52.068;6.968;2023-04-24T04:56:02;99476.66;;;9.13;100.00
3444;BME280;1736;52.068;6.968;2023-04-24T04:58:29;99488.09;;;9.13;100.00
3444;BME280;1736;52.068;6.968;2023-04-24T05:00:55;99482.78;;;9.13;100.00
3444;BME280;1736;52.068;6.968;2023-04-24T05:03:23;99485.88;;;9.09;100.00
3444;BME280;1736;52.068;6.968;2023-04-24T05:05:50;99490.63;;;9.05;100.00
3444;BME280;1736;52.068;6.968;2023-04-24T05:08:16;99485.34;;;9.05;100.00
3444;BME280;1736;52.068;6.968;2023-04-24T05:10:43;99486.16;;;9.06;100.00
3444;BME280;1736;52.068;6.968;2023-04-24T05:13:09;99495.94;;;9.05;100.00
3444;BME280;1736;52.068;6.968;2023-04-24T05:15:36;99493.41;;;9.04;100.00
3444;BME280;1736;52.068;6.968;2023-04-24T05:18:03;99492.06;;;9.00;100.00
3444;BME280;1736;52.068;6.968;2023-04-24T05:20:30;99491.31;;;9.07;100.00
3444;BME280;1736;52.068;6.968;2023-04-24T05:22:57;99493.81;;;9.09;100.00
3444;BME280;1736;52.068;6.968;2023-04-24T05:25:24;99489.78;;;9.05;100.00
3444;BME280;1736;52.068;6.968;2023-04-24T05:27:50;99490.91;;;9.02;100.00
3444;BME280;1736;52.068;6.968;2023-04-24T05:30:18;99491.44;;;9.06;100.00
3444;BME280;1736;52.068;6.968;2023-04-24T05:32:45;99489.19;;;9.11;100.00
3444;BME280;1736;52.068;6.968;2023-04-24T05:35:11;99492.28;;;9.06;100.00
3444;BME280;1736;52.068;6.968;2023-04-24T05:37:39;99491.81;;;8.93;100.00
3444;BME280;1736;52.068;6.968;2023-04-24T05:40:07;99497.63;;;8.97;100.00
3444;BME280;1736;52.068;6.968;2023-04-24T05:42:34;99489.53;;;8.98;100.00
3444;BME280;1736;52.068;6.968;2023-04-24T05:45:00;99500.66;;;9.02;100.00
3444;BME280;1736;52.068;6.968;2023-04-24T05:47:27;99500.69;;;8.92;100.00
3444;BME280;1736;52.068;6.968;2023-04-24T05:49:53;99492.38;;;8.87;100.00
3444;BME280;1736;52.068;6.968;2023-04-24T05:52:20;99494.59;;;8.92;100.00
3444;BME280;1736;52.068;6.968;2023-04-24T05:54:48;99486.28;;;8.87;100.00
3444;BME280;1736;52.068;6.968;2023-04-24T05:57:14;99492.75;;;8.92;100.00
3444;BME280;1736;52.068;6.968;2023-04-24T05:59:41;99487.66;;;8.91;100.00
3444;BME280;1736;52.068;6.968;2023-04-24T06:02:07;99491.50;;;8.96;100.00
3444;BME280;1736;52.068;6.968;2023-04-24T06:04:34;99492.38;;;8.87;100.00
3444;BME280;1736;52.068;6.968;2023-04-24T06:07:00;99483.41;;;8.98;100.00
3444;BME280;1736;52.068;6.968;2023-04-24T06:09:28;99496.50;;;8.99;100.00
3444;BME280;1736;52.068;6.968;2023-04-24T06:11:56;99487.88;;;8.97;100.00
3444;BME280;1736;52.068;6.968;2023-04-24T06:14:22;99492.00;;;9.09;100.00
3444;BME280;1736;52.068;6.968;2023-04-24T06:16:49;99496.31;;;9.10;100.00
3444;BME280;1736;52.068;6.968;2023-04-24T06:19:16;99495.59;;;9.08;100.00
3444;BME280;1736;52.068;6.968;2023-04-24T06:21:42;99495.03;;;9.14;100.00
3444;BME280;1736;52.068;6.968;2023-04-24T06:24:09;99495.28;;;9.21;100.00
3444;BME280;1736;52.068;6.968;2023-04-24T06:26:35;99502.50;;;9.19;100.00
3444;BME280;1736;52.068;6.968;2023-04-24T06:29:03;99502.56;;;9.36;100.00
3444;BME280;1736;52.068;6.968;2023-04-24T06:31:30;99508.16;;;9.51;100.00
3444;BME280;1736;52.068;6.968;2023-04-24T06:34:00;99509.56;;;9.72;100.00
3444;BME280;1736;52.068;6.968;2023-04-24T06:36:27;99511.59;;;9.78;100.00
3444;BME280;1736;52.068;6.968;2023-04-24T06:38:53;99513.25;;;9.79;100.00
3444;BME280;1736;52.068;6.968;2023-04-24T06:41:20;99514.25;;;9.78;100.00
3444;BME280;1736;52.068;6.968;2023-04-24T06:43:46;99524.16;;;9.76;100.00
3444;BME280;1736;52.068;6.968;2023-04-24T06:46:14;99507.28;;;9.77;100.00
3444;BME280;1736;52.068;6.968;2023-04-24T06:48:41;99513.47;;;9.68;100.00
3444;BME280;1736;52.068;6.968;2023-04-24T06:51:07;99523.19;;;9.60;100.00
3444;BME280;1736;52.068;6.968;2023-04-24T06:53:34;99512.03;;;9.56;100.00
3444;BME280;1736;52.068;6.968;2023-04-24T06:56:00;99510.00;;;9.50;100.00
3444;BME280;1736;52.068;6.968;2023-04-24T06:58:27;99513.47;;;9.51;100.00
3444;BME280;1736;52.068;6.968;2023-04-24T07:00:53;99507.28;;;9.42;100.00
3444;BME280;1736;52.068;6.968;2023-04-24T07:03:21;99511.97;;;9.66;100.00
3444;BME280;1736;52.068;6.968;2023-04-24T07:05:48;99523.78;;;9.71;100.00
3444;BME280;1736;52.068;6.968;2023-04-24T07:08:15;99524.06;;;9.68;100.00
3444;BME280;1736;52.068;6.968;2023-04-24T07:10:42;99524.31;;;9.75;100.00
3444;BME280;1736;52.068;6.968;2023-04-24T07:13:10;99514.34;;;9.86;100.00
3444;BME280;1736;52.068;6.968;2023-04-24T07:15:36;99525.06;;;10.02;100.00
3444;BME280;1736;52.068;6.968;2023-04-24T07:18:03;99522.63;;;10.26;100.00
3444;BME280;1736;52.068;6.968;2023-04-24T07:20:30;99522.91;;;10.67;100.00
3444;BME280;1736;52.068;6.968;2023-04-24T07:22:58;99522.75;;;10.94;100.00
3444;BME280;1736;52.068;6.968;2023-04-24T07:25:24;99523.06;;;10.91;99.15
3444;BME280;1736;52.068;6.968;2023-04-24T07:27:53;99527.50;;;10.82;98.67
3444;BME280;1736;52.068;6.968;2023-04-24T07:30:20;99526.81;;;10.80;98.54
3444;BME280;1736;52.068;6.968;2023-04-24T07:32:46;99526.97;;;10.79;99.36
3444;BME280;1736;52.068;6.968;2023-04-24T07:35:13;99533.22;;;10.70;98.97
3444;BME280;1736;52.068;6.968;2023-04-24T07:37:41;99528.81;;;10.52;98.35
3444;BME280;1736;52.068;6.968;2023-04-24T07:40:11;99549.06;;;10.36;98.27
3444;BME280;1736;52.068;6.968;2023-04-24T07:42:37;99542.47;;;10.22;100.00
3444;BME280;1736;52.068;6.968;2023-04-24T07:45:05;99546.56;;;9.99;99.35
3444;BME280;1736;52.068;6.968;2023-04-24T07:47:32;99543.84;;;9.91;100.00
3444;BME280;1736;52.068;6.968;2023-04-24T07:49:59;99550.19;;;9.98;100.00
3444;BME280;1736;52.068;6.968;2023-04-24T07:52:26;99559.59;;;9.75;100.00
3444;BME280;1736;52.068;6.968;2023-04-24T07:54:54;99555.19;;;9.66;100.00
3444;BME280;1736;52.068;6.968;2023-04-24T07:57:23;99551.38;;;9.51;100.00
3444;BME280;1736;52.068;6.968;2023-04-24T07:59:50;99560.22;;;9.42;100.00
3444;BME280;1736;52.068;6.968;2023-04-24T08:02:17;99561.53;;;9.29;100.00
3444;BME280;1736;52.068;6.968;2023-04-24T08:04:43;99567.47;;;9.13;100.00
3444;BME280;1736;52.068;6.968;2023-04-24T08:07:10;99573.22;;;8.99;100.00
3444;BME280;1736;52.068;6.968;2023-04-24T08:09:38;99573.94;;;9.01;100.00
3444;BME280;1736;52.068;6.968;2023-04-24T08:12:06;99582.31;;;8.87;100.00
3444;BME280;1736;52.068;6.968;2023-04-24T08:14:32;99585.25;;;8.84;100.00
3444;BME280;1736;52.068;6.968;2023-04-24T08:16:59;99595.28;;;8.81;100.00
3444;BME280;1736;52.068;6.968;2023-04-24T08:19:26;99588.88;;;8.83;100.00
3444;BME280;1736;52.068;6.968;2023-04-24T08:21:53;99591.50;;;8.83;100.00
3444;BME280;1736;52.068;6.968;2023-04-24T08:24:19;99602.94;;;8.84;100.00
3444;BME280;1736;52.068;6.968;2023-04-24T08:26:46;99609.22;;;8.83;100.00
3444;BME280;1736;52.068;6.968;2023-04-24T08:29:16;99607.00;;;8.78;100.00
3444;BME280;1736;52.068;6.968;2023-04-24T08:31:43;99614.50;;;8.83;100.00
3444;BME280;1736;52.068;6.968;2023-04-24T08:34:10;99616.84;;;8.76;100.00
3444;BME280;1736;52.068;6.968;2023-04-24T08:36:36;99621.34;;;8.76;100.00
3444;BME280;1736;52.068;6.968;2023-04-24T08:39:05;99623.25;;;8.83;100.00
3444;BME280;1736;52.068;6.968;2023-04-24T08:41:33;99623.25;;;8.83;100.00
3444;BME280;1736;52.068;6.968;2023-04-24T08:44:01;99630.22;;;8.84;100.00
3444;BME280;1736;52.068;6.968;2023-04-24T08:46:30;99635.22;;;8.87;100.00
3444;BME280;1736;52.068;6.968;2023-04-24T08:48:57;99634.53;;;8.85;100.00
3444;BME280;1736;52.068;6.968;2023-04-24T08:51:26;99640.78;;;8.94;100.00
3444;BME280;1736;52.068;6.968;2023-04-24T08:53:53;99649.41;;;8.96;100.00
3444;BME280;1736;52.068;6.968;2023-04-24T08:56:21;99646.91;;;9.04;100.00
3444;BME280;1736;52.068;6.968;2023-04-24T08:58:49;99650.22;;;8.96;100.00
3444;BME280;1736;52.068;6.968;2023-04-24T09:01:15;99652.47;;;9.01;100.00
3444;BME280;1736;52.068;6.968;2023-04-24T09:03:44;99656.63;;;9.03;100.00
3444;BME280;1736;52.068;6.968;2023-04-24T09:06:11;99658.28;;;9.04;100.00
3444;BME280;1736;52.068;6.968;2023-04-24T09:08:39;99659.41;;;9.11;100.00
3444;BME280;1736;52.068;6.968;2023-04-24T09:11:07;99655.19;;;9.18;100.00
3444;BME280;1736;52.068;6.968;2023-04-24T09:13:34;99659.66;;;9.18;100.00
3444;BME280;1736;52.068;6.968;2023-04-24T09:16:01;99658.84;;;9.17;100.00
3444;BME280;1736;52.068;6.968;2023-04-24T09:18:27;99664.41;;;9.14;100.00
3444;BME280;1736;52.068;6.968;2023-04-24T09:20:58;99667.59;;;9.18;100.00
3444;BME280;1736;52.068;6.968;2023-04-24T09:23:26;99679.31;;;9.15;100.00
3444;BME280;1736;52.068;6.968;2023-04-24T09:25:54;99677.63;;;9.14;100.00
3444;BME280;1736;52.068;6.968;2023-04-24T09:28:25;99674.53;;;9.19;100.00
3444;BME280;1736;52.068;6.968;2023-04-24T09:31:05;99683.34;;;9.19;100.00
3444;BME280;1736;52.068;6.968;2023-04-24T09:33:32;99693.81;;;9.11;100.00
3444;BME280;1736;52.068;6.968;2023-04-24T09:36:00;99696.19;;;8.95;100.00
3444;BME280;1736;52.068;6.968;2023-04-24T09:38:31;99702.47;;;8.94;100.00
3444;BME280;1736;52.068;6.968;2023-04-24T09:40:59;99710.97;;;8.88;100.00
3444;BME280;1736;52.068;6.968;2023-04-24T09:43:27;99726.00;;;8.78;100.00
3444;BME280;1736;52.068;6.968;2023-04-24T09:45:56;99728.50;;;8.61;100.00
3444;BME280;1736;52.068;6.968;2023-04-24T09:48:34;99735.75;;;8.49;100.00
3444;BME280;1736;52.068;6.968;2023-04-24T09:51:03;99744.50;;;8.50;100.00
3444;BME280;1736;52.068;6.968;2023-04-24T09:53:32;99763.84;;;8.50;100.00
3444;BME280;1736;52.068;6.968;2023-04-24T09:56:02;99769.41;;;8.47;100.00
3444;BME280;1736;52.068;6.968;2023-04-24T09:58:29;99774.69;;;8.47;100.00
3444;BME280;1736;52.068;6.968;2023-04-24T10:01:02;99773.59;;;8.40;100.00
3444;BME280;1736;52.068;6.968;2023-04-24T10:03:29;99793.63;;;8.43;100.00
3444;BME280;1736;52.068;6.968;2023-04-24T10:05:58;99796.53;;;8.40;100.00
3444;BME280;1736;52.068;6.968;2023-04-24T10:08:26;99800.31;;;8.47;100.00
3444;BME280;1736;52.068;6.968;2023-04-24T10:10:59;99806.72;;;8.44;100.00
3444;BME280;1736;52.068;6.968;2023-04-24T10:13:26;99813.41;;;8.48;100.00
3444;BME280;1736;52.068;6.968;2023-04-24T10:15:53;99814.22;;;8.49;100.00
3444;BME280;1736;52.068;6.968;2023-04-24T10:18:20;99820.34;;;8.49;100.00
3444;BME280;1736;52.068;6.968;2023-04-24T10:20:47;99826.47;;;8.50;100.00
3444;BME280;1736;52.068;6.968;2023-04-24T10:23:14;99838.31;;;8.55;100.00
3444;BME280;1736;52.068;6.968;2023-04-24T10:25:43;99828.44;;;8.57;100.00
3444;BME280;1736;52.068;6.968;2023-04-24T10:28:10;99842.09;;;8.62;100.00
3444;BME280;1736;52.068;6.968;2023-04-24T10:30:39;99839.44;;;8.62;100.00
3444;BME280;1736;52.068;6.968;2023-04-24T10:33:08;99851.44;;;8.66;100.00
3444;BME280;1736;52.068;6.968;2023-04-24T10:35:39;99854.63;;;8.70;100.00
3444;BME280;1736;52.068;6.968;2023-04-24T10:38:09;99864.09;;;8.72;100.00
3444;BME280;1736;52.068;6.968;2023-04-24T10:40:37;99867.97;;;8.68;100.00
3444;BME280;1736;52.068;6.968;2023-04-24T10:43:07;99868.25;;;8.56;100.00
3444;BME280;1736;52.068;6.968;2023-04-24T10:45:36;99873.50;;;8.46;100.00
3444;BME280;1736;52.068;6.968;2023-04-24T10:48:04;99873.25;;;8.49;100.00
3444;BME280;1736;52.068;6.968;2023-04-24T10:50:43;99877.16;;;8.55;100.00
3444;BME280;1736;52.068;6.968;2023-04-24T10:53:15;99884.25;;;8.54;100.00
3444;BME280;1736;52.068;6.968;2023-04-24T10:55:44;99887.34;;;8.69;100.00
3444;BME280;1736;52.068;6.968;2023-04-24T10:58:12;99896.81;;;8.71;100.00
3444;BME280;1736;52.068;6.968;2023-04-24T11:00:42;99896.41;;;8.76;100.00
3444;BME280;1736;52.068;6.968;2023-04-24T11:03:23;99899.31;;;8.73;100.00
3444;BME280;1736;52.068;6.968;2023-04-24T11:05:53;99911.19;;;8.78;100.00
3444;BME280;1736;52.068;6.968;2023-04-24T11:08:28;99914.81;;;8.77;100.00
3444;BME280;1736;52.068;6.968;2023-04-24T11:10:58;99926.16;;;8.68;100.00
3444;BME280;1736;52.068;6.968;2023-04-24T11:13:27;99930.34;;;8.61;100.00
3444;BME280;1736;52.068;6.968;2023-04-24T11:16:19;99930.69;;;8.47;100.00
3444;BME280;1736;52.068;6.968;2023-04-24T11:18:50;99944.75;;;8.48;100.00
3444;BME280;1736;52.068;6.968;2023-04-24T11:21:20;99947.00;;;8.52;100.00
3444;BME280;1736;52.068;6.968;2023-04-24T11:23:46;99950.94;;;8.67;100.00
3444;BME280;1736;52.068;6.968;2023-04-24T11:26:17;99962.63;;;8.65;100.00
3444;BME280;1736;52.068;6.968;2023-04-24T11:28:47;99966.28;;;8.73;100.00
3444;BME280;1736;52.068;6.968;2023-04-24T11:31:36;99974.06;;;8.65;100.00
3444;BME280;1736;52.068;6.968;2023-04-24T11:34:10;99972.66;;;8.61;100.00
3444;BME280;1736;52.068;6.968;2023-04-24T11:36:37;99971.28;;;8.76;100.00
3444;BME280;1736;52.068;6.968;2023-04-24T11:39:04;99977.69;;;8.64;100.00
3444;BME280;1736;52.068;6.968;2023-04-24T11:41:33;99978.94;;;8.70;100.00
3444;BME280;1736;52.068;6.968;2023-04-24T11:44:02;99984.09;;;8.71;100.00
3444;BME280;1736;52.068;6.968;2023-04-24T11:46:30;99982.75;;;8.86;100.00
3444;BME280;1736;52.068;6.968;2023-04-24T11:48:57;99997.31;;;9.11;100.00
3444;BME280;1736;52.068;6.968;2023-04-24T11:51:25;99988.47;;;9.50;100.00
3444;BME280;1736;52.068;6.968;2023-04-24T11:53:52;99996.84;;;9.64;100.00
3444;BME280;1736;52.068;6.968;2023-04-24T11:56:19;99999.34;;;9.94;100.00
3444;BME280;1736;52.068;6.968;2023-04-24T11:58:45;100002.97;;;10.31;99.39
3444;BME280;1736;52.068;6.968;2023-04-24T12:01:14;100002.03;;;10.59;99.40
3444;BME280;1736;52.068;6.968;2023-04-24T12:03:40;100001.34;;;10.57;95.17
3444;BME280;1736;52.068;6.968;2023-04-24T12:06:10;100002.09;;;10.40;93.21
3444;BME280;1736;52.068;6.968;2023-04-24T12:08:37;100019.81;;;10.49;92.07
3444;BME280;1736;52.068;6.968;2023-04-24T12:11:06;100016.00;;;10.62;89.96
3444;BME280;1736;52.068;6.968;2023-04-24T12:13:33;100008.16;;;10.70;89.14
3444;BME280;1736;52.068;6.968;2023-04-24T12:16:01;100015.34;;;10.87;88.22
3444;BME280;1736;52.068;6.968;2023-04-24T12:18:30;100027.25;;;11.10;89.65
3444;BME280;1736;52.068;6.968;2023-04-24T12:21:14;100021.97;;;11.10;87.11
3444;BME280;1736;52.068;6.968;2023-04-24T12:23:42;100030.59;;;11.12;85.32
3444;BME280;1736;52.068;6.968;2023-04-24T12:26:09;100031.59;;;11.38;83.84
3444;BME280;1736;52.068;6.968;2023-04-24T12:28:37;100036.28;;;11.44;82.83
3444;BME280;1736;52.068;6.968;2023-04-24T12:31:03;100035.06;;;11.38;81.32
3444;BME280;1736;52.068;6.968;2023-04-24T12:33:34;100043.81;;;11.48;82.75
3444;BME280;1736;52.068;6.968;2023-04-24T12:36:01;100050.41;;;11.17;81.83
3444;BME280;1736;52.068;6.968;2023-04-24T12:38:28;100052.41;;;11.15;82.28
3444;BME280;1736;52.068;6.968;2023-04-24T12:41:02;100050.00;;;10.85;82.77
3444;BME280;1736;52.068;6.968;2023-04-24T12:43:30;100061.78;;;10.63;82.83
3444;BME280;1736;52.068;6.968;2023-04-24T12:45:56;100051.16;;;10.63;82.20
3444;BME280;1736;52.068;6.968;2023-04-24T12:48:24;100061.09;;;10.62;81.82
3444;BME280;1736;52.068;6.968;2023-04-24T12:50:52;100060.72;;;10.37;82.13
3444;BME280;1736;52.068;6.968;2023-04-24T12:53:19;100063.78;;;10.42;83.10
3444;BME280;1736;52.068;6.968;2023-04-24T12:55:45;100078.63;;;10.35;82.50
3444;BME280;1736;52.068;6.968;2023-04-24T12:58:17;100073.00;;;10.38;85.03
3444;BME280;1736;52.068;6.968;2023-04-24T13:00:44;100080.00;;;10.39;85.01
3444;BME280;1736;52.068;6.968;2023-04-24T13:03:11;100074.38;;;10.52;85.47
3444;BME280;1736;52.068;6.968;2023-04-24T13:05:37;100094.22;;;10.48;85.29
3444;BME280;1736;52.068;6.968;2023-04-24T13:08:05;100096.31;;;10.35;85.92
3444;BME280;1736;52.068;6.968;2023-04-24T13:10:32;100093.69;;;10.25;88.49
3444;BME280;1736;52.068;6.968;2023-04-24T13:12:59;100099.38;;;10.40;89.01
3444;BME280;1736;52.068;6.968;2023-04-24T13:15:25;100091.13;;;10.62;85.16
3444;BME280;1736;52.068;6.968;2023-04-24T13:17:52;100104.69;;;11.05;83.97
3444;BME280;1736;52.068;6.968;2023-04-24T13:20:18;100097.94;;;11.20;82.03
3444;BME280;1736;52.068;6.968;2023-04-24T13:22:45;100100.28;;;11.50;79.96